Terminal Aerodrome Forecast
Issued by NWS Goodland, KS

Home | Current Version | Previous Version | Text Only | Print | Product List | Glossary On
Versions: 1 2 3 4 5 6 7 8 9 10 11 12 13 14 15 16
000
FTUS43 KGLD 180500
TAFGLD
TAF
KGLD 180520Z 1806/1906 18016KT P6SM FEW250
     FM180900 19011KT P6SM SCT250
     FM181400 20016G27KT P6SM SKC
     FM190100 17015KT P6SM SKC=

USA.gov is the U.S. government's official web portal to all federal, state and local government web resources and services.